Time;durP1;ratioP1;P1;durP2;ratioP2;P2;SDS_P1;SDS_P2;PMS_P1;PMS_P2;Temp;Humidity;BMP_temperature;BMP_pressure;BME280_temperature;BME280_humidity;BME280_pressure;Samples;Min_cycle;Max_cycle;Signal;HPM_P1;HPM_P2
2022/02/16 00:00:10;;;;;;;7.20;1.92;;;7.20;99.90;;;;;;5004686;28;20030;-86
2022/02/16 00:02:36;;;;;;;10.25;2.15;;;7.30;99.90;;;;;;5021395;28;20034;-82
2022/02/16 00:05:01;;;;;;;8.18;1.95;;;7.40;99.90;;;;;;5025004;28;20605;-85
2022/02/16 00:07:27;;;;;;;6.90;1.45;;;7.50;99.90;;;;;;5008593;28;20638;-87
2022/02/16 00:09:52;;;;;;;7.68;1.58;;;7.40;99.90;;;;;;5004336;28;20061;-85
2022/02/16 00:12:18;;;;;;;8.20;1.80;;;7.60;99.90;;;;;;5011165;28;20041;-85
2022/02/16 00:14:43;;;;;;;4.32;1.40;;;7.40;99.90;;;;;;5008772;28;20034;-89
2022/02/16 00:17:09;;;;;;;9.13;2.08;;;7.50;99.90;;;;;;5024854;28;20085;-87
2022/02/16 00:19:35;;;;;;;10.23;1.90;;;7.40;99.90;;;;;;5030280;28;20088;-90
2022/02/16 00:22:00;;;;;;;8.23;1.90;;;7.30;99.90;;;;;;5012244;28;20021;-90
2022/02/16 00:24:26;;;;;;;5.93;1.88;;;10.00;99.90;;;;;;5022711;28;20026;-88
2022/02/16 00:26:52;;;;;;;4.72;1.60;;;;;;;;;;5014919;28;20089;-85
2022/02/16 00:29:18;;;;;;;7.82;1.70;;;;;;;;;;5022971;28;20030;-86
2022/02/16 00:31:44;;;;;;;6.78;1.95;;;7.40;99.90;;;;;;5018922;28;20061;-87
2022/02/16 00:34:09;;;;;;;4.75;1.42;;;7.30;99.90;;;;;;5023828;28;20053;-87
2022/02/16 00:36:36;;;;;;;3.72;1.55;;;7.30;99.90;;;;;;5008104;28;20022;-88
2022/02/16 00:39:02;;;;;;;4.53;1.70;;;7.30;99.90;;;;;;5003607;28;20030;-87
2022/02/16 00:41:28;;;;;;;10.05;1.90;;;7.20;99.90;;;;;;5021618;28;20151;-87
2022/02/16 00:43:54;;;;;;;6.30;2.05;;;7.20;99.90;;;;;;5024635;28;20264;-88
2022/02/16 00:46:19;;;;;;;7.35;1.70;;;7.20;99.90;;;;;;5014397;28;20026;-87
2022/02/16 00:48:45;;;;;;;5.93;2.10;;;7.20;99.90;;;;;;5003144;28;20691;-85
2022/02/16 00:51:11;;;;;;;5.22;2.00;;;8.90;99.90;;;;;;5022456;28;20029;-86
2022/02/16 00:53:36;;;;;;;7.88;1.88;;;7.10;99.90;;;;;;5021934;28;20022;-87
2022/02/16 00:56:02;;;;;;;5.88;1.88;;;7.20;99.90;;;;;;5022240;28;20599;-86
2022/02/16 00:58:28;;;;;;;7.43;2.05;;;7.10;99.90;;;;;;5005063;28;20431;-83
2022/02/16 01:00:54;;;;;;;6.70;2.15;;;7.10;99.90;;;;;;5006913;28;20121;-87
2022/02/16 01:03:20;;;;;;;5.13;1.65;;;;;;;;;;5017710;28;20065;-86
2022/02/16 01:05:46;;;;;;;6.20;1.60;;;;;;;;;;5000597;28;20056;-87
2022/02/16 01:08:12;;;;;;;4.20;1.45;;;7.00;99.90;;;;;;4997918;28;20026;-83
2022/02/16 01:10:39;;;;;;;5.65;1.80;;;6.90;99.90;;;;;;5021151;28;20053;-84
2022/02/16 01:13:05;;;;;;;5.75;1.65;;;7.00;99.90;;;;;;5000697;28;20690;-84
2022/02/16 01:15:31;;;;;;;5.47;1.90;;;8.10;99.90;;;;;;5001398;28;20025;-86
2022/02/16 01:17:57;;;;;;;8.30;2.15;;;7.00;99.90;;;;;;5014608;28;20040;-85
2022/02/16 01:20:23;;;;;;;5.20;1.27;;;7.00;99.90;;;;;;5003637;28;20054;-85
2022/02/16 01:22:49;;;;;;;7.57;1.92;;;7.30;99.90;;;;;;5018947;28;20033;-85
2022/02/16 01:25:15;;;;;;;5.75;1.63;;;7.30;99.90;;;;;;5001690;28;20132;-86
2022/02/16 01:27:42;;;;;;;5.40;1.50;;;;;;;;;;5001677;28;20069;-85
2022/02/16 01:30:09;;;;;;;3.55;1.40;;;7.30;99.90;;;;;;4994450;28;20030;-87
2022/02/16 01:32:35;;;;;;;6.32;1.60;;;7.20;99.90;;;;;;4996793;28;20542;-85
2022/02/16 01:35:01;;;;;;;8.00;1.63;;;8.40;99.90;;;;;;5015912;28;20025;-86
2022/02/16 01:37:28;;;;;;;5.88;1.70;;;;;;;;;;5016545;28;20093;-86
2022/02/16 01:39:53;;;;;;;6.75;1.70;;;7.20;99.90;;;;;;5016276;28;20497;-86
2022/02/16 01:42:20;;;;;;;5.30;1.60;;;7.20;99.90;;;;;;5016591;28;20034;-83
2022/02/16 01:44:46;;;;;;;3.42;1.33;;;7.20;99.90;;;;;;5001658;28;20052;-85
2022/02/16 01:47:13;;;;;;;3.38;1.30;;;7.10;99.90;;;;;;5028809;28;20030;-87
2022/02/16 01:49:40;;;;;;;3.25;1.42;;;7.20;99.90;;;;;;4999358;28;20388;-85
2022/02/16 01:52:07;;;;;;;5.15;1.52;;;7.30;99.90;;;;;;5006846;28;20030;-86
2022/02/16 01:54:33;;;;;;;5.10;2.55;;;7.10;99.90;;;;;;5013066;28;20053;-86
2022/02/16 01:56:59;;;;;;;7.18;1.60;;;7.10;99.90;;;;;;5010573;28;20487;-86
2022/02/16 01:59:25;;;;;;;3.22;1.48;;;7.10;99.90;;;;;;5000878;28;20030;-85
2022/02/16 02:01:52;;;;;;;6.28;1.70;;;6.80;99.90;;;;;;5015699;28;20041;-85
2022/02/16 02:04:18;;;;;;;2.65;1.40;;;7.00;99.90;;;;;;5018575;28;20033;-86
2022/02/16 02:06:45;;;;;;;5.28;2.20;;;7.00;99.90;;;;;;5020133;28;20033;-85
2022/02/16 02:09:12;;;;;;;5.20;1.80;;;9.10;99.90;;;;;;4995915;28;20029;-86
2022/02/16 02:11:37;;;;;;;8.05;2.08;;;7.10;99.90;;;;;;5004816;28;20034;-86
2022/02/16 02:14:06;;;;;;;6.97;2.75;;;7.00;99.90;;;;;;5002828;28;20084;-85
2022/02/16 02:16:33;;;;;;;4.72;2.00;;;6.90;99.90;;;;;;5010890;28;20041;-88
2022/02/16 02:18:59;;;;;;;2.60;1.70;;;6.90;99.90;;;;;;4997329;28;20025;-87
2022/02/16 02:21:25;;;;;;;5.70;1.70;;;6.90;99.90;;;;;;5015408;28;20030;-84
2022/02/16 02:23:54;;;;;;;3.42;1.73;;;6.90;99.90;;;;;;4983261;28;20040;-85
2022/02/16 02:26:19;;;;;;;6.32;1.70;;;6.90;99.90;;;;;;5010850;28;20392;-86
2022/02/16 02:28:46;;;;;;;5.05;1.70;;;7.30;99.90;;;;;;5012909;28;20040;-85
2022/02/16 02:31:12;;;;;;;4.22;1.90;;;6.90;99.90;;;;;;5011761;28;20038;-87
2022/02/16 02:33:38;;;;;;;3.05;1.60;;;7.40;99.90;;;;;;5009841;28;20100;-86
2022/02/16 02:36:05;;;;;;;4.30;1.63;;;7.00;99.90;;;;;;4997497;28;20038;-84
2022/02/16 02:38:35;;;;;;;5.35;1.73;;;8.80;99.90;;;;;;4999441;28;20886;-84
2022/02/16 02:41:04;;;;;;;6.05;1.90;;;6.90;99.90;;;;;;5013185;28;20025;-80
2022/02/16 02:43:31;;;;;;;4.57;1.50;;;6.90;99.90;;;;;;5015119;28;20042;-84
2022/02/16 02:45:57;;;;;;;3.53;1.70;;;9.90;99.90;;;;;;5006577;28;20392;-86
2022/02/16 02:48:25;;;;;;;5.25;1.67;;;7.00;99.90;;;;;;5012278;28;20038;-85
2022/02/16 02:50:53;;;;;;;3.25;1.67;;;7.00;99.90;;;;;;5001146;28;20108;-83
2022/02/16 02:53:18;;;;;;;3.40;1.60;;;7.00;99.90;;;;;;5022736;28;20064;-84
2022/02/16 02:55:44;;;;;;;3.50;1.50;;;;;;;;;;5019264;28;20491;-84
2022/02/16 02:58:10;;;;;;;3.00;1.52;;;;;;;;;;5006077;28;20030;-84
2022/02/16 03:00:37;;;;;;;4.18;1.50;;;7.00;99.90;;;;;;5021507;28;20180;-87
2022/02/16 03:03:03;;;;;;;3.40;1.55;;;7.40;99.90;;;;;;5018603;28;20034;-86
2022/02/16 03:05:28;;;;;;;2.92;1.42;;;7.00;99.90;;;;;;5016795;28;20038;-86
2022/02/16 03:07:54;;;;;;;5.32;1.50;;;7.00;99.90;;;;;;5015074;28;20423;-85
2022/02/16 03:10:20;;;;;;;3.90;1.35;;;7.00;99.90;;;;;;5017890;28;20506;-88
2022/02/16 03:12:46;;;;;;;2.83;1.65;;;7.10;99.90;;;;;;5025179;28;20033;-83
2022/02/16 03:15:12;;;;;;;2.83;1.30;;;7.20;99.90;;;;;;5006115;28;20030;-86
2022/02/16 03:17:38;;;;;;;4.65;1.45;;;7.20;99.90;;;;;;5022082;28;20034;-86
2022/02/16 03:20:05;;;;;;;1.77;1.15;;;7.10;99.90;;;;;;5025153;28;20022;-83
2022/02/16 03:22:31;;;;;;;3.67;1.40;;;7.10;99.90;;;;;;5021690;28;20030;-86
2022/02/16 03:24:56;;;;;;;2.08;1.17;;;7.10;99.90;;;;;;5022726;28;20092;-88
2022/02/16 03:27:22;;;;;;;2.17;1.30;;;;;;;;;;5024573;28;20042;-85
2022/02/16 03:29:48;;;;;;;2.80;1.15;;;7.10;99.90;;;;;;5008160;28;20034;-85
2022/02/16 03:32:14;;;;;;;2.80;1.30;;;7.00;99.90;;;;;;5021271;28;20048;-85
2022/02/16 03:34:40;;;;;;;3.67;1.20;;;7.00;99.90;;;;;;5001667;28;20621;-84
2022/02/16 03:37:05;;;;;;;1.75;1.10;;;7.10;99.90;;;;;;5023847;28;20037;-84
2022/02/16 03:39:32;;;;;;;2.17;1.20;;;7.10;99.90;;;;;;5022373;28;20388;-83
2022/02/16 03:41:58;;;;;;;2.80;1.30;;;7.00;99.90;;;;;;5022534;28;20018;-84
2022/02/16 03:44:24;;;;;;;4.13;1.30;;;;;;;;;;5004674;28;20030;-87
2022/02/16 03:46:51;;;;;;;1.88;1.27;;;7.10;99.90;;;;;;5020902;28;20113;-86
2022/02/16 03:49:17;;;;;;;2.28;1.40;;;7.10;99.90;;;;;;5005918;28;20036;-86
2022/02/16 03:51:43;;;;;;;3.13;1.63;;;7.10;99.90;;;;;;5022243;28;20048;-87
2022/02/16 03:54:09;;;;;;;3.40;1.38;;;7.20;99.90;;;;;;5029109;28;20037;-82
2022/02/16 03:56:35;;;;;;;1.67;1.13;;;7.20;99.90;;;;;;5007572;28;20026;-85
2022/02/16 03:59:00;;;;;;;2.80;1.20;;;7.20;99.90;;;;;;5012007;28;20052;-83
2022/02/16 04:01:26;;;;;;;2.03;1.30;;;7.20;99.90;;;;;;5007667;28;20038;-83
2022/02/16 04:03:51;;;;;;;1.85;1.20;;;7.30;99.90;;;;;;5001382;28;20026;-84
2022/02/16 04:06:18;;;;;;;2.42;1.25;;;7.20;99.90;;;;;;5016942;28;20308;-85
2022/02/16 04:08:44;;;;;;;2.95;1.40;;;7.20;99.90;;;;;;5019209;28;20021;-84
2022/02/16 04:11:10;;;;;;;4.10;1.33;;;7.20;99.90;;;;;;5003959;28;20033;-84
2022/02/16 04:13:35;;;;;;;4.53;1.13;;;7.10;99.90;;;;;;5020163;28;20392;-84
2022/02/16 04:16:01;;;;;;;1.95;1.20;;;7.20;99.90;;;;;;5001547;28;20041;-84
2022/02/16 04:18:27;;;;;;;2.25;1.70;;;7.20;99.90;;;;;;4999917;28;20037;-84
2022/02/16 04:20:53;;;;;;;2.75;1.58;;;7.20;99.90;;;;;;5017986;28;20037;-82
2022/02/16 04:23:18;;;;;;;2.58;1.27;;;7.20;99.90;;;;;;5017576;28;20495;-83
2022/02/16 04:25:44;;;;;;;1.70;1.20;;;7.30;99.90;;;;;;5001870;28;20414;-85
2022/02/16 04:28:09;;;;;;;3.05;1.30;;;7.70;99.90;;;;;;5017120;28;20531;-83
2022/02/16 04:30:35;;;;;;;3.67;1.35;;;9.60;99.90;;;;;;5000380;28;20029;-81
2022/02/16 04:33:01;;;;;;;2.08;1.20;;;8.70;99.90;;;;;;4998215;28;20036;-82
2022/02/16 04:35:26;;;;;;;2.55;1.30;;;7.40;99.90;;;;;;5001775;28;20109;-83
2022/02/16 04:37:52;;;;;;;2.85;1.10;;;7.40;99.90;;;;;;5024455;28;20184;-84
2022/02/16 04:40:18;;;;;;;4.40;1.55;;;7.40;99.90;;;;;;5014280;28;20041;-86
2022/02/16 04:42:43;;;;;;;2.28;1.20;;;7.30;99.90;;;;;;5012351;28;20106;-87
2022/02/16 04:45:10;;;;;;;3.78;1.50;;;7.30;99.90;;;;;;5003093;28;20025;-86
2022/02/16 04:47:36;;;;;;;3.65;1.60;;;7.20;99.90;;;;;;5021303;28;20061;-83
2022/02/16 04:50:03;;;;;;;2.38;1.30;;;7.20;99.90;;;;;;5004111;28;20030;-88
2022/02/16 04:52:34;;;;;;;2.90;1.50;;;7.20;99.90;;;;;;5001445;28;20399;-85
2022/02/16 04:55:05;;;;;;;2.90;1.50;;;7.20;99.90;;;;;;5018914;28;20026;-84
2022/02/16 04:57:31;;;;;;;3.15;1.40;;;10.10;99.90;;;;;;5017888;28;20407;-87
2022/02/16 04:59:59;;;;;;;2.58;1.40;;;8.90;99.90;;;;;;5016004;28;20407;-84
2022/02/16 05:02:28;;;;;;;2.47;1.40;;;7.20;99.90;;;;;;4999103;28;20030;-86
2022/02/16 05:04:54;;;;;;;2.60;1.27;;;7.30;99.90;;;;;;5018461;28;20099;-87
2022/02/16 05:07:23;;;;;;;2.25;1.17;;;7.30;99.90;;;;;;5003286;28;20038;-85
2022/02/16 05:09:49;;;;;;;2.92;1.40;;;7.30;99.90;;;;;;5018988;28;20030;-86
2022/02/16 05:12:15;;;;;;;3.72;1.52;;;7.30;99.90;;;;;;5004778;28;20069;-83
2022/02/16 05:14:41;;;;;;;3.35;1.60;;;7.20;99.90;;;;;;5018892;28;20034;-83
2022/02/16 05:17:07;;;;;;;3.30;1.73;;;7.30;99.90;;;;;;5002207;28;20033;-86
2022/02/16 05:19:34;;;;;;;3.15;1.55;;;7.10;99.90;;;;;;5006320;28;20049;-87
2022/02/16 05:22:00;;;;;;;2.08;1.27;;;7.10;99.90;;;;;;5008646;28;20030;-84
2022/02/16 05:24:25;;;;;;;2.60;1.30;;;7.30;99.90;;;;;;5021816;28;20034;-84
2022/02/16 05:26:52;;;;;;;2.53;1.30;;;7.30;99.90;;;;;;5019167;28;20040;-87
2022/02/16 05:29:17;;;;;;;2.22;1.20;;;7.30;99.90;;;;;;5001730;28;20101;-84
2022/02/16 05:31:43;;;;;;;2.63;1.20;;;7.80;99.90;;;;;;5020321;28;20052;-86
2022/02/16 05:34:09;;;;;;;3.35;1.50;;;7.30;99.90;;;;;;4989759;28;20030;-87
2022/02/16 05:36:35;;;;;;;2.38;1.30;;;7.30;99.90;;;;;;4995323;28;20030;-83
2022/02/16 05:39:01;;;;;;;2.35;1.35;;;7.40;99.90;;;;;;5000399;28;20034;-83
2022/02/16 05:41:28;;;;;;;1.67;1.20;;;7.30;99.90;;;;;;4981067;28;20037;-86
2022/02/16 05:43:54;;;;;;;3.03;1.17;;;7.30;99.90;;;;;;4998333;28;20488;-84
2022/02/16 05:46:19;;;;;;;2.75;1.20;;;7.40;99.90;;;;;;4978829;28;20027;-81
2022/02/16 05:48:45;;;;;;;2.88;1.23;;;7.40;99.90;;;;;;4983437;28;20037;-85
2022/02/16 05:51:11;;;;;;;1.90;1.35;;;7.90;99.90;;;;;;4981676;28;20034;-84
2022/02/16 05:53:37;;;;;;;3.22;1.20;;;;;;;;;;4994191;28;20684;-84
2022/02/16 05:56:03;;;;;;;2.65;1.42;;;7.40;99.90;;;;;;4995396;28;20026;-86
2022/02/16 05:58:30;;;;;;;2.30;1.50;;;7.40;99.90;;;;;;4995329;28;20434;-85
2022/02/16 06:00:55;;;;;;;2.67;1.48;;;6.60;99.90;;;;;;4989840;28;20037;-85
2022/02/16 06:03:21;;;;;;;3.13;1.50;;;8.20;99.90;;;;;;4971937;28;20042;-87
2022/02/16 06:05:47;;;;;;;2.40;1.15;;;7.30;99.90;;;;;;4977048;28;20084;-86
2022/02/16 06:08:13;;;;;;;1.70;1.30;;;;;;;;;;4995162;28;20030;-86
2022/02/16 06:10:39;;;;;;;2.42;1.23;;;;;;;;;;4994654;28;20124;-86
2022/02/16 06:13:05;;;;;;;3.42;1.30;;;7.30;99.90;;;;;;4982005;28;20034;-86
2022/02/16 06:15:30;;;;;;;4.30;1.30;;;7.20;99.90;;;;;;4994045;28;20040;-87
2022/02/16 06:17:56;;;;;;;2.63;1.30;;;10.10;99.90;;;;;;4994612;28;20034;-88
2022/02/16 06:20:22;;;;;;;2.80;1.25;;;7.30;99.90;;;;;;4992215;28;20026;-85
2022/02/16 06:22:48;;;;;;;3.42;1.30;;;8.60;99.90;;;;;;4988676;28;20041;-86
2022/02/16 06:25:14;;;;;;;2.97;1.33;;;6.70;99.90;;;;;;4984921;28;20434;-87
2022/02/16 06:27:40;;;;;;;2.83;1.42;;;7.30;99.90;;;;;;4993075;28;20117;-85
2022/02/16 06:30:07;;;;;;;2.40;1.48;;;7.30;99.90;;;;;;4990964;28;20038;-85
2022/02/16 06:32:34;;;;;;;2.75;1.27;;;7.30;99.90;;;;;;4994054;28;20535;-84
2022/02/16 06:35:00;;;;;;;4.03;2.00;;;8.10;99.90;;;;;;5010829;28;20056;-85
2022/02/16 06:37:25;;;;;;;3.70;1.50;;;7.40;99.90;;;;;;4995588;28;20030;-86
2022/02/16 06:39:51;;;;;;;2.33;1.58;;;10.60;99.90;;;;;;5012350;28;20030;-82
2022/02/16 06:42:17;;;;;;;2.70;1.58;;;;;;;;;;4996080;28;20401;-85
2022/02/16 06:44:43;;;;;;;3.40;1.60;;;;;;;;;;4997510;28;20033;-88
2022/02/16 06:47:10;;;;;;;2.53;1.60;;;7.30;99.90;;;;;;4992480;28;20031;-81
2022/02/16 06:49:36;;;;;;;2.92;1.60;;;8.10;99.90;;;;;;4997617;28;20093;-84
2022/02/16 06:52:03;;;;;;;2.47;1.52;;;8.40;99.90;;;;;;5009982;28;20022;-86
2022/02/16 06:54:28;;;;;;;4.40;1.63;;;7.30;99.90;;;;;;5010143;28;20029;-84
2022/02/16 06:56:55;;;;;;;2.95;1.33;;;7.70;99.90;;;;;;5002845;28;20029;-86
2022/02/16 06:59:21;;;;;;;3.25;1.40;;;7.30;99.90;;;;;;5014827;28;20018;-86
2022/02/16 07:01:47;;;;;;;2.63;1.45;;;7.40;99.90;;;;;;5016087;28;20094;-87
2022/02/16 07:04:12;;;;;;;2.45;1.30;;;7.40;99.90;;;;;;5006362;28;20029;-88
2022/02/16 07:06:38;;;;;;;3.00;1.58;;;7.40;99.90;;;;;;5002458;28;20064;-88
2022/02/16 07:09:03;;;;;;;2.33;1.40;;;7.40;99.90;;;;;;4999293;28;20026;-86
2022/02/16 07:11:30;;;;;;;2.38;1.40;;;7.20;99.90;;;;;;5003825;28;20053;-86
2022/02/16 07:13:56;;;;;;;3.58;1.40;;;6.80;99.90;;;;;;5015365;28;20026;-87
2022/02/16 07:16:22;;;;;;;1.27;1.10;;;;;;;;;;5012831;28;20157;-85
2022/02/16 07:18:47;;;;;;;2.03;1.20;;;7.40;99.90;;;;;;5014211;28;20026;-87
2022/02/16 07:21:13;;;;;;;2.75;1.40;;;10.20;99.90;;;;;;5018669;28;20029;-88
2022/02/16 07:23:39;;;;;;;1.73;1.17;;;7.50;99.90;;;;;;4992208;28;20555;-88
2022/02/16 07:26:06;;;;;;;2.00;1.60;;;7.50;99.90;;;;;;5014351;28;20033;-89
2022/02/16 07:28:32;;;;;;;2.92;1.38;;;7.70;99.90;;;;;;5011529;28;20034;-86
2022/02/16 07:30:58;;;;;;;2.33;1.10;;;;;;;;;;5006754;28;20036;-88
2022/02/16 07:33:24;;;;;;;1.40;1.08;;;;;;;;;;5008448;28;20053;-85
2022/02/16 07:35:51;;;;;;;2.30;1.20;;;7.40;99.90;;;;;;5014340;28;20089;-86
2022/02/16 07:38:17;;;;;;;2.22;1.20;;;7.30;99.90;;;;;;5013009;28;20487;-84
2022/02/16 07:40:42;;;;;;;2.65;1.38;;;7.30;99.90;;;;;;4996743;28;20049;-82
2022/02/16 07:43:08;;;;;;;2.03;1.27;;;7.40;99.90;;;;;;4994622;28;20038;-85
2022/02/16 07:45:34;;;;;;;2.08;1.10;;;8.00;99.90;;;;;;5011335;28;20033;-85
2022/02/16 07:48:00;;;;;;;1.60;1.17;;;7.40;99.90;;;;;;4999735;28;20112;-84
2022/02/16 07:50:29;;;;;;;2.45;1.00;;;7.40;99.90;;;;;;5012492;28;20040;-87
2022/02/16 07:52:58;;;;;;;4.28;1.20;;;7.40;99.90;;;;;;5012737;28;20045;-88
2022/02/16 07:55:26;;;;;;;3.40;1.05;;;7.40;99.90;;;;;;4996052;28;20030;-86
2022/02/16 07:57:53;;;;;;;1.85;1.10;;;7.50;99.90;;;;;;5011333;28;20026;-89
2022/02/16 08:00:18;;;;;;;3.03;1.10;;;7.60;99.90;;;;;;4997461;28;20413;-85
2022/02/16 08:02:44;;;;;;;3.10;1.10;;;7.50;99.90;;;;;;5010432;28;20060;-88
2022/02/16 08:05:09;;;;;;;2.15;1.00;;;9.70;99.90;;;;;;5019554;28;20016;-89
2022/02/16 08:07:35;;;;;;;1.92;1.10;;;7.60;99.90;;;;;;5005239;28;20036;-87
2022/02/16 08:10:01;;;;;;;2.03;0.98;;;;;;;;;;4999133;28;20034;-87
2022/02/16 08:12:26;;;;;;;2.97;1.50;;;7.50;99.90;;;;;;5018357;28;20022;-88
2022/02/16 08:14:52;;;;;;;1.65;1.05;;;9.70;99.90;;;;;;4997798;28;20030;-87
2022/02/16 08:17:18;;;;;;;1.75;1.02;;;7.60;99.90;;;;;;5011709;28;20049;-87
2022/02/16 08:19:43;;;;;;;1.67;1.23;;;7.40;99.90;;;;;;5009930;28;20488;-88
2022/02/16 08:22:12;;;;;;;1.35;0.80;;;7.50;99.90;;;;;;5036256;28;20002;-87
2022/02/16 08:24:38;;;;;;;2.60;1.45;;;;;;;;;;5019353;28;20101;-86
2022/02/16 08:27:04;;;;;;;2.92;1.27;;;;;;;;;;5033772;28;20017;-87
2022/02/16 08:29:31;;;;;;;1.15;0.93;;;7.60;99.90;;;;;;5001929;28;20041;-87
2022/02/16 08:31:58;;;;;;;2.97;1.10;;;;;;;;;;5013865;28;20006;-86
2022/02/16 08:34:23;;;;;;;0.85;0.73;;;7.60;99.90;;;;;;5027727;28;20041;-86
2022/02/16 08:36:55;;;;;;;2.00;1.27;;;;;;;;;;5013725;28;20252;-87
2022/02/16 08:39:26;;;;;;;2.05;1.00;;;7.70;99.90;;;;;;5023538;28;20026;-90
2022/02/16 08:41:52;;;;;;;2.15;0.90;;;;;;;;;;5026190;28;20026;-88
2022/02/16 08:44:18;;;;;;;1.50;1.00;;;;;;;;;;5026247;28;20034;-83
2022/02/16 08:46:46;;;;;;;1.45;1.10;;;;;;;;;;5025045;28;20029;-84
2022/02/16 08:49:12;;;;;;;1.73;1.00;;;;;;;;;;5029606;28;20042;-87
2022/02/16 08:51:38;;;;;;;1.30;0.90;;;;;;;;;;5027708;28;20032;-87
2022/02/16 08:54:04;;;;;;;2.92;1.60;;;;;;;;;;5030518;28;20021;-88
2022/02/16 08:56:31;;;;;;;1.70;1.23;;;;;;;;;;5023128;28;20030;-87
2022/02/16 08:59:00;;;;;;;1.70;1.10;;;7.90;99.90;;;;;;5028614;28;20042;-85
2022/02/16 09:01:31;;;;;;;1.33;0.90;;;;;;;;;;5013265;28;20043;-87
2022/02/16 09:04:00;;;;;;;;;;;7.90;99.90;;;;;;5021157;28;20022;-88
2022/02/16 09:06:27;;;;;;;1.65;1.00;;;;;;;;;;5024991;28;19913;-86
2022/02/16 09:08:53;;;;;;;2.38;0.90;;;;;;;;;;5024429;28;20076;-86
2022/02/16 09:11:19;;;;;;;5.22;1.00;;;;;;;;;;5007929;28;20040;-89
2022/02/16 09:13:45;;;;;;;1.73;1.00;;;;;;;;;;5021595;28;20053;-88
2022/02/16 09:16:12;;;;;;;1.92;1.20;;;;;;;;;;5028252;28;20037;-86
2022/02/16 09:18:38;;;;;;;1.20;0.98;;;;;;;;;;5017842;28;20041;-86
2022/02/16 09:21:06;;;;;;;1.65;1.08;;;;;;;;;;5029505;28;20061;-88
2022/02/16 09:23:35;;;;;;;2.58;1.17;;;;;;;;;;5018945;28;20037;-86
2022/02/16 09:26:02;;;;;;;1.53;1.00;;;;;;;;;;5004208;28;20120;-88
2022/02/16 09:28:28;;;;;;;1.80;1.00;;;8.00;99.90;;;;;;5027401;28;20100;-86
2022/02/16 09:30:56;;;;;;;3.25;1.10;;;8.00;99.90;;;;;;5028181;28;20041;-87
2022/02/16 09:33:23;;;;;;;1.83;1.20;;;;;;;;;;5028766;23;20042;-83
2022/02/16 09:35:50;;;;;;;2.92;1.48;;;;;;;;;;5021881;28;20072;-87
2022/02/16 09:38:16;;;;;;;1.60;1.00;;;8.00;99.90;;;;;;5042575;28;20025;-84
2022/02/16 09:40:46;;;;;;;2.88;1.08;;;8.20;99.90;;;;;;5023292;28;20029;-85
2022/02/16 09:43:17;;;;;;;1.23;1.00;;;8.30;99.90;;;;;;5042035;28;20017;-83
2022/02/16 09:45:45;;;;;;;2.08;1.13;;;;;;;;;;5038462;23;20053;-83
2022/02/16 09:48:12;;;;;;;1.75;1.23;;;;;;;;;;5012984;28;20065;-82
2022/02/16 09:50:39;;;;;;;2.17;1.20;;;8.30;99.90;;;;;;4998930;28;20044;-81
2022/02/16 09:53:06;;;;;;;1.77;1.30;;;;;;;;;;4995875;28;20061;-81
2022/02/16 09:55:33;;;;;;;3.70;1.98;;;;;;;;;;4978095;28;20026;-81
2022/02/16 09:58:00;;;;;;;2.33;1.35;;;;;;;;;;4973074;28;20049;-81
2022/02/16 10:01:02;;;;;;;2.17;1.52;;;7.70;99.90;;;;;;4994076;28;20023;-77
2022/02/16 10:04:05;;;;;;;2.28;1.50;;;8.40;99.90;;;;;;4994904;28;20031;-77
2022/02/16 10:06:48;;;;;;;3.70;1.80;;;8.40;99.90;;;;;;4981435;28;20018;-77
2022/02/16 10:09:38;;;;;;;4.07;2.00;;;8.30;99.90;;;;;;4998293;28;20093;-77
2022/02/16 10:12:14;;;;;;;3.60;2.28;;;8.50;99.90;;;;;;4977380;28;20022;-77
2022/02/16 10:14:54;;;;;;;3.13;2.17;;;8.50;99.90;;;;;;4978835;28;20404;-77
2022/02/16 10:17:49;;;;;;;2.88;1.95;;;8.60;99.90;;;;;;4977349;28;20077;-76
2022/02/16 10:23:46;;;;;;;3.00;2.28;;;8.60;99.90;;;;;;4998991;28;20085;-79
2022/02/16 10:26:16;;;;;;;2.65;2.00;;;8.60;99.90;;;;;;4980568;28;20031;-80
2022/02/16 10:29:46;;;;;;;3.05;2.17;;;8.60;99.90;;;;;;5002865;28;20054;-77
2022/02/16 10:32:53;;;;;;;3.70;2.15;;;8.60;99.90;;;;;;4978906;28;20038;-77
2022/02/16 10:39:06;;;;;;;3.22;2.30;;;8.70;99.90;;;;;;5004375;28;20045;-79
2022/02/16 10:41:57;;;;;;;3.55;2.10;;;8.70;99.90;;;;;;5003536;28;20040;-79
2022/02/16 10:44:33;;;;;;;3.97;2.83;;;7.10;99.90;;;;;;5002570;28;20061;-82
2022/02/16 10:47:06;;;;;;;4.38;2.00;;;8.50;99.90;;;;;;5000791;28;20038;-80
2022/02/16 10:49:37;;;;;;;4.20;2.70;;;8.70;99.90;;;;;;4989071;28;20025;-80
2022/02/16 10:52:06;;;;;;;;;;;8.70;99.90;;;;;;4968917;28;20569;-80
2022/02/16 10:54:34;;;;;;;2.97;2.13;;;8.70;99.90;;;;;;4963300;28;20074;-80
2022/02/16 10:57:01;;;;;;;2.63;2.20;;;8.70;99.90;;;;;;4963250;28;20030;-80
2022/02/16 10:59:28;;;;;;;2.70;1.98;;;8.70;99.90;;;;;;4952777;28;20185;-80
2022/02/16 11:01:57;;;;;;;2.83;2.00;;;8.70;99.90;;;;;;4954389;28;20030;-80
2022/02/16 11:04:27;;;;;;;2.85;1.80;;;8.90;99.90;;;;;;4975408;28;20034;-80
2022/02/16 11:06:55;;;;;;;;;;;8.90;99.90;;;;;;4972582;28;20056;-79
2022/02/16 11:09:25;;;;;;;3.67;2.08;;;8.80;99.90;;;;;;4990284;28;19914;-79
2022/02/16 11:11:54;;;;;;;;;;;8.80;99.90;;;;;;4964978;28;20033;-80
2022/02/16 11:14:31;;;;;;;3.53;2.17;;;8.80;99.90;;;;;;4986139;28;20275;-80
2022/02/16 11:16:58;;;;;;;2.30;1.77;;;8.90;99.90;;;;;;4960708;28;20022;-79
2022/02/16 11:19:36;;;;;;;2.63;1.92;;;9.10;99.90;;;;;;4979518;28;20014;-82
2022/02/16 11:22:14;;;;;;;2.70;2.28;;;9.10;99.90;;;;;;4981397;28;20023;-80
2022/02/16 11:24:47;;;;;;;2.97;2.00;;;9.00;99.90;;;;;;4980236;28;20510;-80
2022/02/16 11:27:34;;;;;;;2.75;2.28;;;9.00;99.90;;;;;;4985332;28;20090;-82
2022/02/16 11:30:09;;;;;;;2.63;1.88;;;9.00;99.90;;;;;;4958654;28;20026;-80
2022/02/16 11:32:38;;;;;;;2.95;2.20;;;9.10;99.90;;;;;;4972939;28;20273;-81
2022/02/16 11:35:23;;;;;;;2.88;2.20;;;9.10;99.90;;;;;;4960093;28;20491;-79
2022/02/16 11:38:12;;;;;;;3.53;2.58;;;9.10;99.90;;;;;;4963825;28;20152;-80
2022/02/16 11:40:45;;;;;;;2.45;2.00;;;9.10;99.90;;;;;;4966249;28;20080;-78
2022/02/16 11:43:18;;;;;;;4.72;2.40;;;9.10;99.90;;;;;;4971784;28;20128;-80
2022/02/16 11:45:54;;;;;;;4.80;3.00;;;9.20;99.90;;;;;;4985668;28;20046;-79
2022/02/16 11:48:38;;;;;;;3.15;2.25;;;9.20;99.90;;;;;;4972726;28;20038;-81
2022/02/16 11:51:26;;;;;;;2.65;2.15;;;9.30;99.90;;;;;;4975202;28;20040;-80
2022/02/16 11:53:53;;;;;;;4.03;2.00;;;9.30;99.90;;;;;;4973859;28;20038;-80
2022/02/16 11:56:22;;;;;;;3.75;2.30;;;9.30;99.90;;;;;;4969921;28;20277;-80
2022/02/16 11:59:23;;;;;;;3.00;2.45;;;9.30;99.90;;;;;;4975222;28;20094;-80
2022/02/16 12:02:05;;;;;;;3.25;2.30;;;9.30;99.90;;;;;;4966591;28;20146;-79
2022/02/16 12:04:32;;;;;;;4.22;2.50;;;9.20;99.90;;;;;;4967709;28;20031;-80
2022/02/16 12:07:25;;;;;;;3.42;2.70;;;9.20;99.90;;;;;;4983807;28;20038;-80
2022/02/16 12:10:13;;;;;;;3.13;2.50;;;9.20;99.90;;;;;;4961096;28;20038;-80
2022/02/16 12:12:42;;;;;;;3.40;2.80;;;9.40;99.90;;;;;;4964420;28;20102;-80
2022/02/16 12:15:09;;;;;;;3.30;2.47;;;9.40;99.90;;;;;;4947244;28;20563;-80
2022/02/16 12:17:36;;;;;;;4.38;2.42;;;9.50;99.90;;;;;;4986819;28;20039;-80
2022/02/16 12:20:06;;;;;;;3.30;2.60;;;9.50;99.90;;;;;;4969586;28;20026;-79
2022/02/16 12:22:36;;;;;;;3.78;2.60;;;9.40;99.90;;;;;;4966818;28;20022;-80
2022/02/16 12:25:17;;;;;;;3.85;2.50;;;9.50;99.90;;;;;;4972525;28;20041;-81
2022/02/16 12:27:45;;;;;;;4.97;3.15;;;9.60;99.90;;;;;;4977606;28;20555;-79
2022/02/16 12:30:11;;;;;;;4.18;2.90;;;9.60;99.90;;;;;;4990572;28;20734;-79
2022/02/16 12:32:44;;;;;;;3.97;2.60;;;9.60;99.90;;;;;;4965469;28;20145;-80
2022/02/16 12:35:10;;;;;;;3.58;2.60;;;;;;;;;;4981155;28;20034;-80
2022/02/16 12:37:41;;;;;;;4.13;2.40;;;;;;;;;;4958856;28;20022;-80
2022/02/16 12:40:11;;;;;;;3.58;2.20;;;;;;;;;;4985669;28;20034;-82
2022/02/16 12:42:44;;;;;;;2.92;1.98;;;;;;;;;;4964496;28;20030;-82
2022/02/16 12:45:21;;;;;;;4.10;2.55;;;8.60;99.90;;;;;;4958924;28;20329;-81
2022/02/16 12:47:51;;;;;;;4.72;2.00;;;;;;;;;;4955121;28;20140;-80
